Time;durP1;ratioP1;P1;durP2;ratioP2;P2;SDS_P1;SDS_P2;PMS_P1;PMS_P2;Temp;Humidity;BMP_temperature;BMP_pressure;BME280_temperature;BME280_humidity;BME280_pressure;Samples;Min_cycle;Max_cycle;Signal;HPM_P1;HPM_P2
2022/04/10 00:03:26;;;;;;;28.17;3.78;;;;;;;1.74;100.00;101445.28;10433761;28;20029;-72
2022/04/10 00:08:26;;;;;;;16.80;2.90;;;;;;;1.77;100.00;101446.78;10384630;28;20025;-71
2022/04/10 00:13:27;;;;;;;11.20;2.30;;;;;;;1.74;100.00;101434.44;10385186;28;20037;-70
2022/04/10 00:18:27;;;;;;;11.25;2.17;;;;;;;1.73;100.00;101435.44;10355150;28;20049;-72
2022/04/10 00:23:28;;;;;;;12.88;2.53;;;;;;;1.68;100.00;101437.88;10342766;28;20584;-72
2022/04/10 00:28:28;;;;;;;23.95;3.72;;;;;;;1.64;100.00;101452.84;10358339;28;20050;-72
2022/04/10 00:33:29;;;;;;;14.35;3.03;;;;;;;1.43;100.00;101431.78;10374643;28;20049;-72
2022/04/10 00:38:29;;;;;;;18.65;4.15;;;;;;;1.50;100.00;101450.91;10375570;28;20030;-72
2022/04/10 00:43:34;;;;;;;26.85;4.45;;;;;;;1.39;100.00;101455.72;10343765;28;20026;-72
2022/04/10 00:48:35;;;;;;;16.77;4.18;;;;;;;1.30;100.00;101435.09;10391326;28;20085;-71
2022/04/10 00:53:35;;;;;;;21.67;4.22;;;;;;;1.34;100.00;101462.69;10407015;28;20471;-72
2022/04/10 00:58:36;;;;;;;12.65;2.88;;;;;;;1.33;100.00;101461.84;10398935;28;20029;-72
2022/04/10 01:03:36;;;;;;;26.25;4.68;;;;;;;1.43;100.00;101467.06;10398011;28;20029;-72
2022/04/10 01:08:36;;;;;;;20.17;3.10;;;;;;;1.40;100.00;101468.25;10357096;28;20041;-71
2022/04/10 01:13:37;;;;;;;12.15;2.67;;;;;;;1.36;100.00;101460.66;10358636;28;20025;-72
2022/04/10 01:18:38;;;;;;;13.88;3.10;;;;;;;1.32;100.00;101476.44;10358471;28;20126;-71
2022/04/10 01:23:38;;;;;;;15.35;2.85;;;;;;;1.27;100.00;101480.72;10404229;28;20030;-72
2022/04/10 01:29:02;;;;;;;18.17;4.93;;;;;;;1.25;100.00;101480.91;10378415;28;20052;-72
2022/04/10 01:34:05;;;;;;;17.98;4.15;;;;;;;1.19;100.00;101471.59;10414256;28;20064;-72
2022/04/10 01:39:07;;;;;;;16.65;4.50;;;;;;;1.18;100.00;101474.50;10414254;28;20033;-72
2022/04/10 01:44:08;;;;;;;22.92;4.72;;;;;;;1.28;100.00;101490.53;10431344;28;20037;-72
2022/04/10 01:49:08;;;;;;;14.32;4.50;;;;;;;1.11;100.00;101474.34;10397585;28;20033;-73
2022/04/10 01:54:09;;;;;;;16.75;3.05;;;;;;;1.18;100.00;101477.22;10371072;28;20049;-72
2022/04/10 01:59:09;;;;;;;11.43;2.67;;;;;;;1.15;100.00;101472.13;10396101;28;20041;-72
2022/04/10 02:04:10;;;;;;;13.98;2.55;;;;;;;1.23;100.00;101472.09;10412852;28;20025;-72
2022/04/10 02:09:10;;;;;;;16.55;3.45;;;;;;;1.34;100.00;101489.81;10413665;28;20022;-72
2022/04/10 02:14:12;;;;;;;14.23;2.72;;;;;;;1.45;100.00;101491.28;10402400;28;20037;-73
2022/04/10 02:19:12;;;;;;;18.00;3.05;;;;;;;1.43;100.00;101494.19;10355429;28;20034;-72
2022/04/10 02:24:13;;;;;;;12.45;2.88;;;;;;;1.40;100.00;101483.69;10387004;28;20034;-71
2022/04/10 02:29:14;;;;;;;11.57;2.38;;;;;;;1.45;100.00;101488.56;10370839;28;20053;-72
2022/04/10 02:34:15;;;;;;;21.73;2.97;;;;;;;1.39;100.00;101472.00;10371230;28;20052;-72
2022/04/10 02:39:15;;;;;;;14.00;3.35;;;;;;;1.50;100.00;101480.75;10355280;28;20109;-72
2022/04/10 02:44:16;;;;;;;18.70;3.58;;;;;;;1.50;100.00;101488.88;10371627;28;20029;-72
2022/04/10 02:49:17;;;;;;;12.73;2.70;;;;;;;1.40;100.00;101481.81;10388031;28;20034;-72
2022/04/10 02:54:17;;;;;;;18.25;2.67;;;;;;;1.55;100.00;101505.47;10406181;28;20029;-72
2022/04/10 02:59:18;;;;;;;15.10;4.18;;;;;;;1.50;100.00;101495.16;10404825;28;20034;-73
2022/04/10 03:04:18;;;;;;;9.23;3.20;;;;;;;1.67;100.00;101517.59;10427077;28;20025;-74
2022/04/10 03:09:19;;;;;;;12.95;2.97;;;;;;;1.75;100.00;101533.84;10411679;28;20029;-72
2022/04/10 03:14:19;;;;;;;14.17;2.63;;;;;;;1.69;100.00;101517.44;10411353;28;20083;-73
2022/04/10 03:19:19;;;;;;;11.30;2.83;;;;;;;1.51;100.00;101523.13;10394537;28;20041;-73
2022/04/10 03:24:20;;;;;;;10.88;2.08;;;;;;;1.21;100.00;101491.25;10377973;28;20033;-72
2022/04/10 03:29:20;;;;;;;16.15;3.45;;;;;;;1.49;100.00;101536.91;10380781;28;20053;-72
2022/04/10 03:34:21;;;;;;;9.95;2.38;;;;;;;1.51;100.00;101550.25;10383257;28;20046;-72
2022/04/10 03:39:22;;;;;;;10.52;2.47;;;;;;;1.65;100.00;101552.22;10383936;28;20030;-72
2022/04/10 03:44:22;;;;;;;12.68;2.53;;;;;;;1.66;100.00;101563.94;10367509;28;20080;-72
2022/04/10 03:49:22;;;;;;;15.00;2.67;;;;;;;1.67;100.00;101561.03;10366694;28;20034;-72
2022/04/10 03:54:23;;;;;;;21.95;4.70;;;;;;;1.63;100.00;101570.56;10419231;28;20033;-73
2022/04/10 03:59:24;;;;;;;19.17;3.00;;;;;;;1.61;100.00;101572.59;10423107;28;20044;-73
2022/04/10 04:04:25;;;;;;;16.70;2.97;;;;;;;1.61;100.00;101572.59;10423918;28;20060;-72
2022/04/10 04:09:25;;;;;;;10.70;2.08;;;;;;;1.65;100.00;101576.66;10424008;28;20033;-72
2022/04/10 04:14:26;;;;;;;12.18;2.08;;;;;;;1.52;100.00;101582.66;10407618;28;20056;-73
2022/04/10 04:19:26;;;;;;;18.85;2.65;;;;;;;1.44;100.00;101592.72;10422204;28;20370;-72
2022/04/10 04:24:26;;;;;;;12.45;2.10;;;;;;;1.38;100.00;101600.53;10408399;28;20417;-72
2022/04/10 04:29:27;;;;;;;14.70;2.33;;;;;;;1.34;100.00;101582.91;10381353;28;20429;-73
2022/04/10 04:34:27;;;;;;;10.77;2.88;;;;;;;1.27;100.00;101584.66;10397532;28;20471;-72
2022/04/10 04:39:28;;;;;;;11.30;1.63;;;;;;;1.35;100.00;101590.03;10343583;28;20033;-72
2022/04/10 04:44:30;;;;;;;16.13;2.30;;;;;;;1.53;100.00;101618.78;10392074;28;20061;-73
2022/04/10 04:49:31;;;;;;;9.27;2.45;;;;;;;1.75;100.00;101614.44;10375265;28;20069;-73
2022/04/10 04:54:31;;;;;;;13.45;2.08;;;;;;;1.73;100.00;101617.31;10373849;28;20085;-73
2022/04/10 04:59:32;;;;;;;8.25;1.35;;;;;;;1.71;100.00;101632.94;10374564;28;20042;-72
2022/04/10 05:04:32;;;;;;;10.85;2.20;;;;;;;1.66;100.00;101637.22;10362738;28;20534;-72
2022/04/10 05:09:33;;;;;;;8.20;1.50;;;;;;;1.27;100.00;101576.50;10374773;28;20026;-73
2022/04/10 05:14:33;;;;;;;9.40;2.78;;;;;;;1.52;100.00;101636.09;10392277;28;20037;-72
2022/04/10 05:19:34;;;;;;;8.05;1.83;;;;;;;1.45;100.00;101648.66;10341321;28;20064;-73
2022/04/10 05:24:34;;;;;;;11.55;3.05;;;;;;;1.35;100.00;101652.44;10372858;28;20049;-72
2022/04/10 05:29:35;;;;;;;9.18;1.67;;;;;;;1.20;100.00;101636.03;10372856;28;20050;-72
2022/04/10 05:34:35;;;;;;;5.93;1.63;;;;;;;0.95;100.00;101616.28;10373765;28;20034;-72
2022/04/10 05:39:38;;;;;;;5.85;2.15;;;;;;;1.32;100.00;101676.34;10357404;28;20030;-72
2022/04/10 05:44:39;;;;;;;7.57;1.75;;;;;;;1.36;100.00;101678.53;10379383;28;20033;-72
2022/04/10 05:49:39;;;;;;;15.25;2.88;;;;;;;1.51;100.00;101669.66;10396632;28;20056;-72
2022/04/10 05:54:40;;;;;;;9.05;1.70;;;;;;;1.96;100.00;101689.84;10412006;28;20029;-72
2022/04/10 05:59:40;;;;;;;8.23;1.75;;;;;;;2.23;100.00;101702.09;10413026;28;20037;-72
2022/04/10 06:04:41;;;;;;;6.00;1.35;;;;;;;2.45;100.00;101694.16;10381300;28;20032;-73
2022/04/10 06:09:41;;;;;;;8.30;1.55;;;;;;;2.68;100.00;101700.41;10380707;28;20486;-73
2022/04/10 06:14:41;;;;;;;7.45;1.60;;;;;;;2.75;100.00;101705.97;10398064;28;20038;-72
2022/04/10 06:19:42;;;;;;;7.55;1.55;;;;;;;2.76;100.00;101710.41;10371139;28;20030;-72
2022/04/10 06:24:42;;;;;;;10.00;1.30;;;;;;;2.74;100.00;101693.41;10354762;28;20026;-73
2022/04/10 06:29:43;;;;;;;13.63;2.45;;;;;;;2.85;100.00;101717.44;10354721;28;20041;-72
2022/04/10 06:34:43;;;;;;;7.40;1.10;;;;;;;3.03;100.00;101720.69;10355533;28;20136;-73
2022/04/10 06:39:44;;;;;;;6.13;1.58;;;;;;;3.34;100.00;101714.28;10371671;28;20049;-72
2022/04/10 06:44:44;;;;;;;4.97;1.08;;;;;;;3.76;100.00;101731.00;10361790;28;20034;-72
2022/04/10 06:49:45;;;;;;;7.03;1.92;;;;;;;3.75;100.00;101748.41;10378085;28;20031;-73
2022/04/10 06:54:45;;;;;;;7.75;1.48;;;;;;;3.58;100.00;101761.34;10369968;28;20038;-73
2022/04/10 06:59:46;;;;;;;10.07;1.85;;;;;;;3.13;100.00;101746.81;10383858;28;20057;-72
2022/04/10 07:04:46;;;;;;;6.07;1.30;;;;;;;2.95;100.00;101747.97;10370443;28;20038;-72
2022/04/10 07:09:47;;;;;;;11.52;2.35;;;;;;;2.94;100.00;101767.22;10354391;28;20121;-72
2022/04/10 07:14:47;;;;;;;7.85;2.00;;;;;;;2.99;100.00;101772.94;10360677;28;20037;-73
2022/04/10 07:19:48;;;;;;;13.63;1.83;;;;;;;3.21;100.00;101782.13;10393066;28;20025;-73
2022/04/10 07:24:48;;;;;;;9.30;1.90;;;;;;;3.27;100.00;101775.09;10408832;28;20048;-73
2022/04/10 07:29:49;;;;;;;7.03;1.45;;;;;;;3.52;100.00;101779.28;10393560;28;20051;-72
2022/04/10 07:34:49;;;;;;;10.18;1.40;;;;;;;3.56;100.00;101780.59;10428491;28;20033;-73
2022/04/10 07:39:50;;;;;;;7.40;1.70;;;;;;;3.98;100.00;101783.72;10410528;28;20037;-73
2022/04/10 07:44:54;;;;;;;8.00;1.48;;;;;;;4.37;100.00;101794.28;10410025;28;20401;-73
2022/04/10 07:49:55;;;;;;;13.38;1.52;;;;;;;4.48;100.00;101800.28;10391973;28;20124;-73
2022/04/10 07:54:55;;;;;;;5.78;2.63;;;;;;;4.36;100.00;101803.50;10351753;28;20045;-73
2022/04/10 07:59:56;;;;;;;4.97;1.20;;;;;;;3.95;100.00;101806.72;10410153;28;20099;-74
2022/04/10 08:04:57;;;;;;;5.72;1.42;;;;;;;4.21;100.00;101808.13;10446101;28;20045;-73
2022/04/10 08:09:57;;;;;;;14.95;2.30;;;;;;;4.59;100.00;101805.25;10415154;28;20021;-72
2022/04/10 08:14:58;;;;;;;16.35;2.50;;;;;;;5.42;100.00;101820.16;10402392;28;20026;-72
2022/04/10 08:19:58;;;;;;;9.77;1.80;;;;;;;5.28;100.00;101799.22;10436410;28;20048;-73
2022/04/10 08:25:04;;;;;;;8.27;2.13;;;;;;;5.34;100.00;101824.91;10403725;28;20021;-74
2022/04/10 08:30:08;;;;;;;11.20;1.98;;;;;;;5.52;100.00;101840.81;10435067;28;20041;-72
2022/04/10 08:35:09;;;;;;;5.78;1.35;;;;;;;5.72;100.00;101835.50;10452395;28;20509;-73
2022/04/10 08:40:10;;;;;;;8.82;2.45;;;;;;;5.89;100.00;101814.19;10437211;28;20460;-73
2022/04/10 08:45:10;;;;;;;9.13;1.50;;;;;;;5.89;100.00;101836.06;10427622;28;20100;-73
2022/04/10 08:50:11;;;;;;;5.60;1.33;;;;;;;5.85;100.00;101831.00;10436302;28;20040;-74
2022/04/10 08:55:11;;;;;;;3.85;1.27;;;;;;;6.38;100.00;101833.22;10432035;28;20025;-73
2022/04/10 09:00:12;;;;;;;10.00;1.30;;;;;;;7.19;100.00;101826.97;10414981;28;20037;-73
2022/04/10 09:05:31;;;;;;;11.60;1.70;;;;;;;7.33;100.00;101849.72;10449308;28;20472;-74
2022/04/10 09:10:54;;;;;;;5.95;2.15;;;;;;;7.21;100.00;101824.88;10430836;28;20037;-73
2022/04/10 09:16:06;;;;;;;8.73;1.48;;;;;;;7.75;100.00;101814.75;10415756;28;20021;-74
2022/04/10 09:21:07;;;;;;;3.30;0.93;;;;;;;7.23;100.00;101833.69;10416929;28;20021;-74
2022/04/10 09:26:08;;;;;;;12.60;1.58;;;;;;;6.93;100.00;101848.81;10448995;28;20029;-74
2022/04/10 09:31:25;;;;;;;11.35;1.83;;;;;;;7.12;100.00;101852.66;10424435;28;20042;-73
2022/04/10 09:36:37;;;;;;;5.05;1.10;;;;;;;7.46;100.00;101851.63;10397012;28;20104;-73
2022/04/10 09:41:39;;;;;;;7.55;1.58;;;;;;;7.35;98.24;101841.31;10388516;28;20044;-74
2022/04/10 09:46:39;;;;;;;5.15;1.15;;;;;;;7.54;96.48;101845.94;10371406;28;20037;-73
2022/04/10 09:51:59;;;;;;;4.60;0.85;;;;;;;7.87;91.96;101839.59;10371919;28;20041;-73
2022/04/10 09:57:16;;;;;;;4.85;1.00;;;;;;;8.35;89.35;101835.69;10394325;28;20528;-74
2022/04/10 10:02:20;;;;;;;;;;;;;;;8.19;87.99;101835.13;10395140;28;20025;-73
2022/04/10 10:07:20;;;;;;;9.75;0.90;;;;;;;8.22;85.14;101825.63;10393524;28;19924;-75
2022/04/10 10:12:22;;;;;;;10.25;0.90;;;;;;;7.71;87.87;101797.03;10409874;28;20503;-74
2022/04/10 10:17:22;;;;;;;3.20;0.98;;;;;;;8.46;85.69;101837.81;10394629;28;20370;-74
2022/04/10 10:22:23;;;;;;;7.55;1.95;;;;;;;8.56;87.48;101851.94;10394627;28;20029;-74
2022/04/10 10:27:45;;;;;;;8.77;1.27;;;;;;;8.14;93.43;101881.53;10393597;28;20049;-74
2022/04/10 10:32:52;;;;;;;8.52;0.90;;;;;;;7.45;100.00;101875.44;10427024;28;20509;-73
2022/04/10 10:37:53;;;;;;;11.27;1.17;;;;;;;8.21;93.69;101867.84;10447000;28;20085;-74
2022/04/10 10:42:57;;;;;;;4.85;0.80;;;;;;;8.58;91.24;101852.56;10398649;28;20021;-74
2022/04/10 10:48:32;;;;;;;3.28;0.70;;;;;;;8.47;89.67;101881.53;10415537;28;20067;-75
2022/04/10 10:54:00;;;;;;;2.67;1.00;;;;;;;8.20;88.06;101863.41;10447280;28;20455;-75
2022/04/10 10:59:24;;;;;;;3.00;0.73;;;;;;;8.41;87.48;101851.34;10413756;28;20119;-74
2022/04/10 11:04:25;;;;;;;5.55;0.80;;;;;;;8.22;86.90;101878.56;10427816;28;20030;-74
2022/04/10 11:09:30;;;;;;;5.53;1.10;;;;;;;9.24;87.12;101861.50;10415670;28;20090;-74
2022/04/10 11:14:40;;;;;;;7.47;1.17;;;;;;;9.84;81.71;101850.06;10430381;28;20036;-75
2022/04/10 11:19:48;;;;;;;5.85;1.00;;;;;;;10.55;79.89;101851.44;10425752;28;20035;-73
2022/04/10 11:24:52;;;;;;;2.05;0.70;;;;;;;9.53;78.22;101864.69;10428152;28;20029;-74
2022/04/10 11:30:02;;;;;;;3.30;1.20;;;;;;;9.20;78.83;101873.97;10429444;28;20041;-76
2022/04/10 11:35:02;;;;;;;4.82;0.80;;;;;;;9.03;80.20;101882.78;10448315;28;20037;-75
2022/04/10 11:40:03;;;;;;;7.57;0.98;;;;;;;9.48;78.33;101863.44;10393010;28;20080;-77
2022/04/10 11:45:04;;;;;;;3.75;0.90;;;;;;;9.30;78.26;101871.59;10404738;28;20204;-76
2022/04/10 11:50:06;;;;;;;2.53;0.65;;;;;;;9.77;75.75;101858.34;10417270;28;20025;-75
2022/04/10 11:55:08;;;;;;;5.15;1.48;;;;;;;9.72;76.13;101869.19;10436286;28;20029;-74
2022/04/10 12:00:10;;;;;;;4.05;1.00;;;;;;;10.64;74.56;101874.00;10438303;28;20504;-74
2022/04/10 12:05:10;;;;;;;3.97;1.00;;;;;;;11.99;69.71;101833.16;10419205;28;20030;-74
2022/04/10 12:10:11;;;;;;;4.55;1.08;;;;;;;12.27;68.42;101849.84;10420947;28;20033;-74
2022/04/10 12:15:19;;;;;;;5.72;0.90;;;;;;;11.78;68.78;101859.41;10418287;28;20037;-76
2022/04/10 12:20:22;;;;;;;4.18;0.90;;;;;;;10.52;72.07;101873.91;10419570;28;20066;-76
2022/04/10 12:25:22;;;;;;;4.95;1.27;;;;;;;10.58;72.30;101870.25;10433708;28;20056;-75
2022/04/10 12:30:23;;;;;;;3.95;1.10;;;;;;;12.66;69.95;101866.72;10421609;28;20041;-74
2022/04/10 12:35:23;;;;;;;8.90;0.73;;;;;;;13.31;66.98;101865.53;10432597;28;20196;-74
2022/04/10 12:40:30;;;;;;;3.55;0.90;;;;;;;12.73;66.12;101858.28;10412549;28;20041;-74
2022/04/10 12:45:31;;;;;;;2.65;0.60;;;;;;;13.57;61.88;101846.63;10452439;28;20472;-77
2022/04/10 12:50:31;;;;;;;6.63;0.85;;;;;;;13.66;60.63;101858.09;10431890;28;20050;-77
2022/04/10 12:55:36;;;;;;;5.60;0.75;;;;;;;14.30;61.15;101858.56;10452189;28;20033;-74
2022/04/10 13:00:44;;;;;;;5.22;0.95;;;;;;;13.19;61.14;101858.34;10450886;28;20068;-76
2022/04/10 13:06:04;;;;;;;4.13;0.80;;;;;;;13.40;58.56;101843.84;10432675;28;20033;-75
2022/04/10 13:11:09;;;;;;;3.72;0.80;;;;;;;14.37;59.68;101846.47;10447008;28;20524;-76
2022/04/10 13:16:10;;;;;;;5.67;0.60;;;;;;;13.02;58.82;101850.88;10450666;28;20032;-77
2022/04/10 13:21:11;;;;;;;3.22;0.80;;;;;;;14.13;59.62;101850.25;10432171;28;20417;-77
2022/04/10 13:26:11;;;;;;;2.35;0.70;;;;;;;15.18;58.88;101845.78;10431216;28;20049;-76
2022/04/10 13:31:12;;;;;;;7.88;0.80;;;;;;;14.33;59.07;101855.25;10395465;28;20080;-76
2022/04/10 13:36:12;;;;;;;4.88;0.85;;;;;;;13.92;59.18;101840.81;10411509;28;20038;-76
2022/04/10 13:41:13;;;;;;;5.50;0.98;;;;;;;12.30;61.70;101863.19;10410665;28;20060;-76
2022/04/10 13:46:14;;;;;;;6.78;0.88;;;;;;;12.51;64.91;101871.91;10394521;28;20058;-77
2022/04/10 13:51:14;;;;;;;5.90;0.80;;;;;;;13.89;62.90;101852.41;10430193;28;20045;-75
2022/04/10 13:56:15;;;;;;;4.90;1.38;;;;;;;13.86;60.91;101857.59;10395008;28;20026;-77
2022/04/10 14:01:16;;;;;;;5.57;0.88;;;;;;;14.68;60.54;101809.75;10379821;28;20033;-77
2022/04/10 14:06:16;;;;;;;3.13;0.68;;;;;;;16.02;58.24;101852.63;10378191;28;20036;-77
2022/04/10 14:11:17;;;;;;;4.85;0.95;;;;;;;15.48;57.61;101840.53;10393530;28;20036;-78
2022/04/10 14:16:19;;;;;;;5.55;1.27;;;;;;;15.25;56.03;101832.53;10393992;28;20049;-75
2022/04/10 14:21:19;;;;;;;6.03;0.88;;;;;;;15.31;56.97;101839.81;10394369;28;20029;-76
2022/04/10 14:26:20;;;;;;;4.68;1.00;;;;;;;14.94;56.98;101840.53;10411459;28;20175;-76
2022/04/10 14:31:20;;;;;;;4.28;0.77;;;;;;;13.58;58.16;101855.75;10410752;28;20054;-76
2022/04/10 14:36:21;;;;;;;5.32;0.95;;;;;;;14.04;58.70;101864.81;10427019;28;20401;-77
2022/04/10 14:41:22;;;;;;;4.53;0.77;;;;;;;13.77;58.00;101859.97;10426355;28;20406;-76
2022/04/10 14:46:23;;;;;;;4.32;0.73;;;;;;;13.27;59.19;101856.03;10393496;28;20041;-77
2022/04/10 14:51:23;;;;;;;5.85;0.90;;;;;;;11.87;62.80;101880.06;10391526;28;20049;-77
2022/04/10 14:56:24;;;;;;;4.55;1.05;;;;;;;12.04;62.81;101874.72;10391706;28;20026;-77
2022/04/10 15:01:27;;;;;;;3.55;0.82;;;;;;;12.17;62.08;101874.47;10407832;28;20034;-77
2022/04/10 15:06:28;;;;;;;7.53;1.15;;;;;;;13.57;59.90;101876.22;10377231;28;20034;-77
2022/04/10 15:11:29;;;;;;;5.93;0.88;;;;;;;14.55;58.21;101854.44;10425333;28;20057;-76
2022/04/10 15:16:29;;;;;;;3.30;0.70;;;;;;;15.49;55.84;101858.84;10376881;28;20028;-77
2022/04/10 15:21:30;;;;;;;5.45;0.98;;;;;;;15.17;55.79;101849.66;10425483;28;20032;-77
2022/04/10 15:26:30;;;;;;;3.60;0.90;;;;;;;14.34;55.69;101850.56;10410116;28;20022;-77
2022/04/10 15:31:31;;;;;;;4.28;0.80;;;;;;;11.99;60.67;101880.09;10409099;28;20387;-77
2022/04/10 15:36:31;;;;;;;3.85;1.10;;;;;;;12.10;62.34;101901.34;10390331;28;20413;-76
2022/04/10 15:41:40;;;;;;;8.68;0.88;;;;;;;11.19;64.88;101903.41;10408038;28;20018;-76
2022/04/10 15:46:41;;;;;;;2.65;0.70;;;;;;;9.97;66.61;101915.09;10391736;28;20029;-73
2022/04/10 15:51:42;;;;;;;8.10;0.77;;;;;;;11.16;65.23;101901.09;10406828;28;20098;-75
2022/04/10 15:56:42;;;;;;;3.97;0.90;;;;;;;12.58;62.51;101889.19;10375790;28;20033;-74
2022/04/10 16:01:43;;;;;;;4.85;0.70;;;;;;;13.75;59.60;101884.28;10407657;28;20120;-78
2022/04/10 16:06:43;;;;;;;3.28;0.90;;;;;;;14.17;58.53;101874.69;10424510;28;20453;-76
2022/04/10 16:11:43;;;;;;;5.15;1.63;;;;;;;12.89;61.68;101898.97;10388430;28;20045;-77
2022/04/10 16:16:46;;;;;;;4.50;0.82;;;;;;;13.36;60.67;101881.38;10389028;28;20030;-77
2022/04/10 16:21:46;;;;;;;2.78;0.90;;;;;;;13.87;60.89;101885.03;10408455;28;20033;-78
2022/04/10 16:30:07;;;;;;;5.65;0.88;;;;;;;12.61;59.70;101877.66;10395693;28;20040;-78
2022/04/10 16:32:07;;;;;;;6.30;0.90;;;;;;;13.20;60.28;101887.69;10411483;28;20042;-80
2022/04/10 16:37:08;;;;;;;5.25;0.93;;;;;;;13.16;58.65;101879.03;10397832;28;20033;-78
2022/04/10 16:42:11;;;;;;;4.85;1.02;;;;;;;12.16;61.01;101872.78;10422103;28;20045;-78
2022/04/10 16:47:11;;;;;;;6.05;1.10;;;;;;;11.88;62.78;101885.38;10429324;28;20831;-79
2022/04/10 16:52:12;;;;;;;5.45;1.40;;;;;;;10.85;63.83;101900.22;10398794;28;20029;-79
2022/04/10 16:57:12;;;;;;;6.10;1.20;;;;;;;10.10;67.81;101917.72;10420453;28;20037;-79
2022/04/10 17:02:13;;;;;;;3.05;0.88;;;;;;;9.42;69.70;101924.78;10369732;28;20046;-78
2022/04/10 17:07:14;;;;;;;4.35;0.68;;;;;;;8.98;71.00;101923.78;10387804;28;20034;-79
2022/04/10 17:12:14;;;;;;;4.53;0.70;;;;;;;8.88;70.62;101920.66;10364972;28;20026;-78
2022/04/10 17:17:16;;;;;;;3.95;0.60;;;;;;;8.76;70.49;101925.13;10388720;28;20030;-77
2022/04/10 17:22:17;;;;;;;3.42;0.63;;;;;;;8.55;69.71;101918.84;10392127;28;20030;-78
2022/04/10 17:27:17;;;;;;;2.10;0.68;;;;;;;8.14;70.39;101889.78;10370698;28;20042;-74
2022/04/10 17:32:18;;;;;;;3.60;0.50;;;;;;;7.89;68.82;101908.78;10355604;28;20038;-78
2022/04/10 17:37:18;;;;;;;2.30;0.80;;;;;;;7.79;69.90;101933.91;10403444;28;20092;-77
2022/04/10 17:42:19;;;;;;;4.25;0.70;;;;;;;7.49;70.68;101927.94;10377563;28;20034;-78
2022/04/10 17:47:20;;;;;;;3.42;0.60;;;;;;;7.42;73.28;101958.06;10380046;28;20107;-78
2022/04/10 17:52:20;;;;;;;9.68;1.20;;;;;;;7.22;74.93;101958.00;10431311;28;20379;-78
2022/04/10 17:57:21;;;;;;;3.90;0.90;;;;;;;7.06;75.57;101952.88;10394364;28;20030;-78
2022/04/10 18:02:21;;;;;;;3.17;0.70;;;;;;;6.92;77.20;101954.72;10395033;28;20025;-78
2022/04/10 18:07:22;;;;;;;3.90;0.70;;;;;;;6.67;77.01;101943.44;10429254;28;20021;-79
2022/04/10 18:12:22;;;;;;;4.88;0.75;;;;;;;6.62;79.50;101968.69;10393295;28;20032;-78
2022/04/10 18:17:23;;;;;;;9.02;1.52;;;;;;;6.46;80.30;101969.00;10409583;28;20532;-78
2022/04/10 18:22:23;;;;;;;4.00;0.70;;;;;;;6.26;82.27;101971.56;10354814;28;20053;-78
2022/04/10 18:27:24;;;;;;;4.28;1.13;;;;;;;6.06;84.88;101982.38;10353558;28;20042;-77
2022/04/10 18:32:24;;;;;;;3.03;0.98;;;;;;;5.85;86.27;101973.13;10408310;28;20053;-76
2022/04/10 18:37:25;;;;;;;4.70;1.65;;;;;;;5.60;89.77;101971.78;10409933;28;20115;-77
2022/04/10 18:42:25;;;;;;;3.13;0.55;;;;;;;5.41;94.08;101978.75;10391819;28;20099;-78
2022/04/10 18:47:26;;;;;;;2.67;0.70;;;;;;;5.14;100.00;101978.44;10409273;28;20071;-77
2022/04/10 18:52:26;;;;;;;3.20;0.70;;;;;;;4.91;100.00;101989.47;10392855;28;20025;-77
2022/04/10 18:57:27;;;;;;;8.00;1.40;;;;;;;4.67;100.00;101992.50;10392839;28;20076;-77
2022/04/10 19:02:27;;;;;;;3.00;0.80;;;;;;;4.42;100.00;101993.63;10425698;28;20049;-77
2022/04/10 19:07:28;;;;;;;5.68;0.98;;;;;;;4.21;100.00;101997.03;10408686;28;20051;-77
2022/04/10 19:12:28;;;;;;;4.18;1.10;;;;;;;4.04;100.00;102000.94;10393720;28;20041;-77
2022/04/10 19:17:29;;;;;;;3.58;1.40;;;;;;;3.82;100.00;101991.75;10410486;28;20041;-77
2022/04/10 19:22:29;;;;;;;4.32;1.75;;;;;;;3.42;100.00;101942.03;10394124;28;20029;-78
2022/04/10 19:27:30;;;;;;;2.55;1.30;;;;;;;3.70;100.00;102009.53;10393551;28;20029;-78
2022/04/10 19:32:31;;;;;;;4.13;1.73;;;;;;;3.51;100.00;101999.97;10427495;28;20065;-78
2022/04/10 19:37:31;;;;;;;6.82;2.10;;;;;;;3.03;100.00;101943.78;10377663;28;20088;-78
2022/04/10 19:42:32;;;;;;;4.82;1.60;;;;;;;3.31;100.00;102010.47;10427582;28;20079;-77
2022/04/10 19:47:32;;;;;;;4.63;1.73;;;;;;;3.21;100.00;101999.81;10427867;28;20029;-78
2022/04/10 19:53:34;;;;;;;7.50;2.00;;;;;;;3.11;100.00;102010.06;10377829;28;20033;-78
2022/04/10 19:57:53;;;;;;;4.25;2.25;;;;;;;3.02;100.00;102003.84;10425184;28;20029;-77
2022/04/10 20:02:54;;;;;;;6.18;1.83;;;;;;;2.92;100.00;102012.19;10423409;28;20181;-77
2022/04/10 20:07:54;;;;;;;8.82;2.38;;;;;;;2.74;100.00;102009.69;10431622;28;20033;-77
2022/04/10 20:12:55;;;;;;;7.38;2.00;;;;;;;2.50;100.00;101994.31;10433856;28;20067;-78
2022/04/10 20:17:56;;;;;;;5.15;1.80;;;;;;;2.37;100.00;101988.53;10417567;28;20060;-77
2022/04/10 20:22:57;;;;;;;4.65;2.25;;;;;;;2.39;100.00;102000.94;10417811;28;20504;-77
2022/04/10 20:27:57;;;;;;;6.45;2.67;;;;;;;2.17;100.00;101979.91;10432694;28;20053;-78
2022/04/10 20:32:58;;;;;;;6.22;3.20;;;;;;;2.20;100.00;101996.72;10433549;28;20110;-77
2022/04/10 20:37:58;;;;;;;7.45;3.97;;;;;;;1.86;100.00;101953.47;10432284;28;20025;-78
2022/04/10 20:42:59;;;;;;;7.85;3.88;;;;;;;2.00;100.00;101996.22;10433904;28;20034;-77
2022/04/10 20:48:00;;;;;;;15.48;5.38;;;;;;;1.99;100.00;101997.25;10396891;28;20030;-78
2022/04/10 20:53:00;;;;;;;9.02;4.70;;;;;;;1.97;100.00;101984.88;10431877;28;20045;-77
2022/04/10 20:58:04;;;;;;;8.45;5.07;;;;;;;1.93;100.00;101992.50;10431930;28;20373;-77
2022/04/10 21:03:05;;;;;;;7.70;3.25;;;;;;;1.87;100.00;101985.03;10432898;28;20037;-78
2022/04/10 21:08:06;;;;;;;6.07;3.10;;;;;;;1.89;100.00;101985.72;10402671;28;20100;-78
2022/04/10 21:13:07;;;;;;;10.00;3.67;;;;;;;1.85;100.00;101986.22;10392133;28;20540;-77
2022/04/10 21:18:08;;;;;;;8.70;3.55;;;;;;;1.78;100.00;101975.19;10390592;28;20044;-77
2022/04/10 21:23:08;;;;;;;12.27;4.50;;;;;;;1.69;100.00;101965.34;10373515;28;20025;-77
2022/04/10 21:28:09;;;;;;;7.97;2.33;;;;;;;1.63;100.00;101972.28;10388565;28;20042;-78
2022/04/10 21:33:10;;;;;;;6.13;2.08;;;;;;;1.56;100.00;101971.28;10428417;28;20044;-78
2022/04/10 21:38:10;;;;;;;4.40;1.85;;;;;;;1.43;100.00;101966.34;10430930;28;20026;-78
2022/04/10 21:43:11;;;;;;;6.32;2.72;;;;;;;1.35;100.00;101964.47;10430069;28;20029;-79
2022/04/10 21:48:11;;;;;;;6.72;2.55;;;;;;;1.28;100.00;101970.69;10394858;28;20075;-78
2022/04/10 21:53:12;;;;;;;9.10;2.97;;;;;;;1.18;100.00;101973.59;10389743;28;20037;-79
2022/04/10 21:58:12;;;;;;;5.38;2.83;;;;;;;1.16;100.00;101975.63;10389029;28;20038;-78
2022/04/10 22:03:14;;;;;;;11.68;3.20;;;;;;;1.15;100.00;101979.31;10365703;28;20045;-77
2022/04/10 22:08:15;;;;;;;3.85;2.42;;;;;;;1.13;100.00;101976.75;10427900;28;20099;-77
2022/04/10 22:13:16;;;;;;;7.55;2.88;;;;;;;1.09;100.00;101985.41;10390804;28;20060;-77
2022/04/10 22:18:17;;;;;;;5.82;2.60;;;;;;;0.96;100.00;101967.75;10422501;28;20045;-77
2022/04/10 22:23:19;;;;;;;8.80;3.50;;;;;;;0.95;100.00;101986.88;10371004;28;20050;-77
2022/04/10 22:28:19;;;;;;;5.97;2.85;;;;;;;0.92;100.00;101984.50;10389345;28;20124;-77
2022/04/10 22:33:20;;;;;;;6.03;3.15;;;;;;;0.85;100.00;101984.31;10385129;28;20041;-77
2022/04/10 22:38:20;;;;;;;7.00;3.28;;;;;;;0.81;100.00;101982.94;10415102;28;20029;-77
2022/04/10 22:43:21;;;;;;;8.45;4.43;;;;;;;0.76;100.00;101979.84;10427354;28;20076;-77
2022/04/10 22:48:21;;;;;;;7.65;3.60;;;;;;;0.74;100.00;101979.16;10428751;28;20026;-75
2022/04/10 22:53:22;;;;;;;5.82;3.63;;;;;;;0.75;100.00;101978.16;10414175;28;20034;-78
2022/04/10 22:58:22;;;;;;;8.90;3.15;;;;;;;0.73;100.00;101980.19;10396120;28;20033;-77
2022/04/10 23:03:23;;;;;;;6.13;3.47;;;;;;;0.63;100.00;101966.75;10428553;28;20029;-77
2022/04/10 23:08:23;;;;;;;5.80;3.65;;;;;;;0.66;100.00;101990.81;10429064;28;20084;-79